createdAt,value
2022-12-15T00:02:19.425Z,99.00
2022-12-15T00:05:05.763Z,98.80
2022-12-15T00:07:51.657Z,98.90
2022-12-15T00:10:37.725Z,98.80
2022-12-15T00:13:30.043Z,98.70
2022-12-15T00:16:15.997Z,98.70
2022-12-15T00:19:01.348Z,98.70
2022-12-15T00:21:47.502Z,98.60
2022-12-15T00:24:33.177Z,98.60
2022-12-15T00:27:18.717Z,98.60
2022-12-15T00:30:04.266Z,98.40
2022-12-15T00:32:49.453Z,98.60
2022-12-15T00:35:34.643Z,98.50
2022-12-15T00:38:32.355Z,98.50
2022-12-15T00:41:00.299Z,98.40
2022-12-15T00:43:32.274Z,98.40
2022-12-15T00:46:18.907Z,98.40
2022-12-15T00:48:46.580Z,98.30
2022-12-15T00:51:14.369Z,98.20
2022-12-15T00:54:00.563Z,98.30
2022-12-15T00:56:46.166Z,98.20
2022-12-15T00:59:32.228Z,98.30
2022-12-15T01:02:17.735Z,98.30
2022-12-15T01:05:03.206Z,98.30
2022-12-15T01:07:50.021Z,98.20
2022-12-15T01:10:36.229Z,98.20
2022-12-15T01:13:23.027Z,98.20
2022-12-15T01:16:08.687Z,98.20
2022-12-15T01:18:54.037Z,98.20
2022-12-15T01:21:24.583Z,98.20
2022-12-15T01:23:52.416Z,98.20
2022-12-15T01:26:19.300Z,98.10
2022-12-15T01:28:46.088Z,98.10
2022-12-15T01:31:13.414Z,98.10
2022-12-15T01:33:42.729Z,98.10
2022-12-15T01:36:10.582Z,98.10
2022-12-15T01:38:37.828Z,98.10
2022-12-15T01:41:10.944Z,98.00
2022-12-15T01:43:39.857Z,98.10
2022-12-15T01:46:15.190Z,98.00
2022-12-15T01:49:08.152Z,97.90
2022-12-15T01:51:42.701Z,98.00
2022-12-15T01:54:30.977Z,98.00
2022-12-15T01:57:04.756Z,98.00
2022-12-15T01:59:36.003Z,98.00
2022-12-15T02:02:03.433Z,98.00
2022-12-15T02:04:31.720Z,98.00
2022-12-15T02:06:58.505Z,98.00
2022-12-15T02:09:26.836Z,98.00
2022-12-15T02:12:08.896Z,98.00
2022-12-15T02:14:47.225Z,98.00
2022-12-15T02:17:25.651Z,97.90
2022-12-15T02:20:35.260Z,97.80
2022-12-15T02:23:20.653Z,97.80
2022-12-15T02:26:08.489Z,97.80
2022-12-15T02:28:44.194Z,97.80
2022-12-15T02:31:51.610Z,97.90
2022-12-15T02:34:23.541Z,97.90
2022-12-15T02:36:59.501Z,97.90
2022-12-15T02:39:26.668Z,98.20
2022-12-15T02:41:53.594Z,97.90
2022-12-15T02:44:23.096Z,98.00
2022-12-15T02:47:25.609Z,97.90
2022-12-15T02:50:10.684Z,97.90
2022-12-15T02:52:52.669Z,97.90
2022-12-15T02:55:50.382Z,98.00
2022-12-15T02:58:26.172Z,98.00
2022-12-15T03:00:59.160Z,98.10
2022-12-15T03:03:29.524Z,98.00
2022-12-15T03:05:57.788Z,98.00
2022-12-15T03:08:24.925Z,98.10
2022-12-15T03:10:53.328Z,98.10
2022-12-15T03:13:20.862Z,98.00
2022-12-15T03:15:47.701Z,98.00
2022-12-15T03:18:14.513Z,98.00
2022-12-15T03:20:41.469Z,97.90
2022-12-15T03:23:08.302Z,98.00
2022-12-15T03:25:35.181Z,98.00
2022-12-15T03:28:01.986Z,98.00
2022-12-15T03:30:28.765Z,98.10
2022-12-15T03:32:55.578Z,98.10
2022-12-15T03:35:22.457Z,97.80
2022-12-15T03:37:49.765Z,98.10
2022-12-15T03:40:16.871Z,98.20
2022-12-15T03:42:49.574Z,98.20
2022-12-15T03:45:21.699Z,98.20
2022-12-15T03:47:49.221Z,98.20
2022-12-15T03:50:22.005Z,98.10
2022-12-15T03:52:57.962Z,98.10
2022-12-15T03:55:25.926Z,98.10
2022-12-15T03:57:53.112Z,98.10
2022-12-15T04:00:21.366Z,98.10
2022-12-15T04:02:50.223Z,98.10
2022-12-15T04:05:25.743Z,98.10
2022-12-15T04:07:53.947Z,98.10
2022-12-15T04:10:21.146Z,98.10
2022-12-15T04:12:47.979Z,98.10
2022-12-15T04:15:15.248Z,98.00
2022-12-15T04:17:42.954Z,98.00
2022-12-15T04:20:10.351Z,98.00
2022-12-15T04:22:39.021Z,97.90
2022-12-15T04:25:27.445Z,98.00
2022-12-15T04:28:13.237Z,97.90
2022-12-15T04:31:02.815Z,97.80
2022-12-15T04:33:48.933Z,97.90
2022-12-15T04:36:35.285Z,97.90
2022-12-15T04:39:23.587Z,97.80
2022-12-15T04:42:10.179Z,97.90
2022-12-15T04:44:55.801Z,97.90
2022-12-15T04:47:41.453Z,97.80
2022-12-15T04:50:27.167Z,97.90
2022-12-15T04:53:12.450Z,97.90
2022-12-15T04:55:57.837Z,97.80
2022-12-15T04:58:43.279Z,97.90
2022-12-15T05:01:28.722Z,97.90
2022-12-15T05:04:14.532Z,97.90
2022-12-15T05:07:00.025Z,98.00
2022-12-15T05:09:45.451Z,98.00
2022-12-15T05:12:30.493Z,98.10
2022-12-15T05:15:15.778Z,98.10
2022-12-15T05:18:01.150Z,98.10
2022-12-15T05:20:46.592Z,98.00
2022-12-15T05:23:35.295Z,98.00
2022-12-15T05:26:20.921Z,98.00
2022-12-15T05:29:06.194Z,98.10
2022-12-15T05:31:51.606Z,98.10
2022-12-15T05:34:21.292Z,98.00
2022-12-15T05:36:48.393Z,98.10
2022-12-15T05:39:15.245Z,98.00
2022-12-15T05:41:42.277Z,98.10
2022-12-15T05:44:09.712Z,98.10
2022-12-15T05:46:36.750Z,98.10
2022-12-15T05:49:05.747Z,98.00
2022-12-15T05:51:33.035Z,98.00
2022-12-15T05:53:59.977Z,98.00
2022-12-15T05:56:28.480Z,97.90
2022-12-15T05:58:57.379Z,98.00
2022-12-15T06:01:25.822Z,97.90
2022-12-15T06:03:52.751Z,97.90
2022-12-15T06:06:20.447Z,97.90
2022-12-15T06:08:47.398Z,97.90
2022-12-15T06:11:19.363Z,97.90
2022-12-15T06:13:46.974Z,97.90
2022-12-15T06:16:22.180Z,97.80
2022-12-15T06:18:59.000Z,97.80
2022-12-15T06:21:32.318Z,97.90
2022-12-15T06:23:59.233Z,97.90
2022-12-15T06:26:30.700Z,97.90
2022-12-15T06:28:59.552Z,98.00
2022-12-15T06:31:26.784Z,98.00
2022-12-15T06:34:01.262Z,97.90
2022-12-15T06:36:29.004Z,98.20
2022-12-15T06:38:59.411Z,98.00
2022-12-15T06:41:26.804Z,97.80
2022-12-15T06:43:58.056Z,97.80
2022-12-15T06:46:26.697Z,97.80
2022-12-15T06:48:53.950Z,97.80
2022-12-15T06:51:20.767Z,97.90
2022-12-15T06:53:54.277Z,97.90
2022-12-15T06:56:27.210Z,97.90
2022-12-15T06:58:59.768Z,97.90
2022-12-15T07:01:26.886Z,97.90
2022-12-15T07:03:54.984Z,98.00
2022-12-15T07:06:22.746Z,97.90
2022-12-15T07:08:52.668Z,97.90
2022-12-15T07:11:21.503Z,97.90
2022-12-15T07:13:52.865Z,97.80
2022-12-15T07:16:21.409Z,97.90
2022-12-15T07:18:48.640Z,97.70
2022-12-15T07:21:15.673Z,98.20
2022-12-15T07:23:58.585Z,98.10
2022-12-15T07:26:26.006Z,98.00
2022-12-15T07:28:54.024Z,98.00
2022-12-15T07:31:21.504Z,98.00
2022-12-15T07:33:48.605Z,98.10
2022-12-15T07:36:15.953Z,98.10
2022-12-15T07:38:45.555Z,98.00
2022-12-15T07:41:18.218Z,98.00
2022-12-15T07:43:46.082Z,98.00
2022-12-15T07:46:14.158Z,98.00
2022-12-15T07:48:41.159Z,98.00
2022-12-15T07:51:15.194Z,98.00
2022-12-15T07:53:46.675Z,98.00
2022-12-15T07:56:13.685Z,98.00
2022-12-15T07:58:40.476Z,97.90
2022-12-15T08:01:10.657Z,97.90
2022-12-15T08:03:39.424Z,97.80
2022-12-15T08:06:11.790Z,97.80
2022-12-15T08:08:39.444Z,97.90
2022-12-15T08:11:11.799Z,97.90
2022-12-15T08:16:26.450Z,97.80
2022-12-15T08:18:53.803Z,97.70
2022-12-15T08:21:20.741Z,97.80
2022-12-15T08:23:48.071Z,97.80
2022-12-15T08:26:17.981Z,97.90
2022-12-15T08:28:45.994Z,97.80
2022-12-15T08:31:19.636Z,97.80
2022-12-15T08:33:47.459Z,97.80
2022-12-15T08:36:17.036Z,97.80
2022-12-15T08:38:44.860Z,97.70
2022-12-15T08:41:19.712Z,97.70
2022-12-15T08:43:49.203Z,97.70
2022-12-15T08:46:18.271Z,97.70
2022-12-15T08:48:45.959Z,97.70
2022-12-15T08:51:12.816Z,97.70
2022-12-15T08:53:39.643Z,97.60
2022-12-15T08:56:12.325Z,97.60
2022-12-15T08:58:39.944Z,97.70
2022-12-15T09:01:09.688Z,97.40
2022-12-15T09:03:37.090Z,97.70
2022-12-15T09:06:05.479Z,97.80
2022-12-15T09:08:32.877Z,97.80
2022-12-15T09:11:00.697Z,97.80
2022-12-15T09:13:28.741Z,97.60
2022-12-15T09:16:10.242Z,97.70
2022-12-15T09:18:38.018Z,97.40
2022-12-15T09:21:07.333Z,97.20
2022-12-15T09:23:36.601Z,97.10
2022-12-15T09:26:14.385Z,97.20
2022-12-15T09:28:43.024Z,97.20
2022-12-15T09:31:30.961Z,97.30
2022-12-15T09:33:59.439Z,97.30
2022-12-15T09:36:30.040Z,97.30
2022-12-15T09:38:56.943Z,97.50
2022-12-15T09:41:27.301Z,97.10
2022-12-15T09:44:18.650Z,97.20
2022-12-15T09:47:09.130Z,97.20
2022-12-15T09:49:54.639Z,97.10
2022-12-15T09:52:27.069Z,97.30
2022-12-15T09:54:54.221Z,97.10
2022-12-15T09:57:35.590Z,97.10
2022-12-15T10:00:37.051Z,97.20
2022-12-15T10:03:16.871Z,97.20
2022-12-15T10:08:54.030Z,97.20
2022-12-15T10:11:20.794Z,97.10
2022-12-15T10:13:53.533Z,97.10
2022-12-15T10:16:39.108Z,97.20
2022-12-15T10:19:13.645Z,97.20
2022-12-15T10:21:41.131Z,97.20
2022-12-15T10:24:44.429Z,97.20
2022-12-15T10:27:24.975Z,97.30
2022-12-15T10:30:00.564Z,97.30
2022-12-15T10:32:40.973Z,97.40
2022-12-15T10:35:27.963Z,97.30
2022-12-15T10:38:00.204Z,97.70
2022-12-15T10:43:41.182Z,97.40
2022-12-15T10:46:13.916Z,97.50
2022-12-15T10:48:48.648Z,97.60
2022-12-15T10:51:25.083Z,97.60
2022-12-15T10:54:03.403Z,97.50
2022-12-15T10:56:33.910Z,97.50
2022-12-15T10:59:21.195Z,97.40
2022-12-15T11:01:48.215Z,97.50
2022-12-15T11:04:35.908Z,97.30
2022-12-15T11:07:04.035Z,97.30
2022-12-15T11:09:36.241Z,97.10
2022-12-15T11:12:39.256Z,97.10
2022-12-15T11:15:26.328Z,97.10
2022-12-15T11:18:04.281Z,97.20
2022-12-15T11:20:37.358Z,97.00
2022-12-15T11:23:07.564Z,97.10
2022-12-15T11:25:44.056Z,97.20
2022-12-15T11:28:20.717Z,97.10
2022-12-15T11:30:57.181Z,97.30
2022-12-15T11:33:24.517Z,97.20
2022-12-15T11:36:20.757Z,97.00
2022-12-15T11:38:59.122Z,97.10
2022-12-15T11:42:16.604Z,97.20
2022-12-15T11:45:28.244Z,97.30
2022-12-15T11:48:32.993Z,97.10
2022-12-15T11:51:21.149Z,97.00
2022-12-15T11:54:00.179Z,97.10
2022-12-15T11:56:39.354Z,97.00
2022-12-15T12:02:34.878Z,96.60
2022-12-15T12:05:37.876Z,96.90
2022-12-15T12:08:13.587Z,97.30
2022-12-15T12:10:45.828Z,96.70
2022-12-15T12:13:47.525Z,97.20
2022-12-15T12:16:32.610Z,97.20
2022-12-15T12:19:06.445Z,97.50
2022-12-15T12:21:42.901Z,97.20
2022-12-15T12:24:26.519Z,97.10
2022-12-15T12:27:10.267Z,96.90
2022-12-15T12:29:51.337Z,96.80
2022-12-15T12:32:50.377Z,96.90
2022-12-15T12:35:48.786Z,96.90
2022-12-15T12:38:26.827Z,96.90
2022-12-15T12:41:07.926Z,97.40
2022-12-15T12:43:38.348Z,97.10
2022-12-15T12:46:32.218Z,97.00
2022-12-15T12:49:06.456Z,97.00
2022-12-15T12:51:42.506Z,97.00
2022-12-15T12:54:31.246Z,97.00
2022-12-15T12:56:58.587Z,97.10
2022-12-15T12:59:33.991Z,97.10
2022-12-15T13:02:24.664Z,97.10
2022-12-15T13:05:00.631Z,97.10
2022-12-15T13:07:36.379Z,97.10
2022-12-15T13:10:09.251Z,97.00
2022-12-15T13:13:00.834Z,96.90
2022-12-15T13:15:27.682Z,97.10
2022-12-15T13:18:04.674Z,97.20
2022-12-15T13:20:34.923Z,96.80
2022-12-15T13:23:17.515Z,96.70
2022-12-15T13:25:51.754Z,96.60
2022-12-15T13:28:44.084Z,96.70
2022-12-15T13:31:16.917Z,96.70
2022-12-15T13:33:50.216Z,96.90
2022-12-15T13:36:42.122Z,96.90
2022-12-15T13:39:14.552Z,96.90
2022-12-15T13:42:15.214Z,96.80
2022-12-15T13:44:44.175Z,96.90
2022-12-15T13:47:31.112Z,97.00
2022-12-15T13:50:15.331Z,96.80
2022-12-15T13:55:38.050Z,97.10
2022-12-15T13:58:07.875Z,97.00
2022-12-15T14:00:38.255Z,97.00
2022-12-15T14:03:12.431Z,96.80
2022-12-15T14:05:42.965Z,96.70
2022-12-15T14:08:15.692Z,96.80
2022-12-15T14:11:50.755Z,96.90
2022-12-15T14:14:23.380Z,97.10
2022-12-15T14:16:57.862Z,97.10
2022-12-15T14:19:25.895Z,97.10
2022-12-15T14:21:57.634Z,97.20
2022-12-15T14:24:40.178Z,97.20
2022-12-15T14:27:07.356Z,97.10
2022-12-15T14:29:34.512Z,97.00
2022-12-15T14:32:01.975Z,97.30
2022-12-15T14:34:36.934Z,97.50
2022-12-15T14:37:08.243Z,97.40
2022-12-15T14:39:50.119Z,97.40
2022-12-15T14:42:26.631Z,97.40
2022-12-15T14:44:57.793Z,97.50
2022-12-15T14:47:31.897Z,97.30
2022-12-15T14:50:01.420Z,97.00
2022-12-15T14:52:41.531Z,97.40
2022-12-15T14:55:31.840Z,97.50
2022-12-15T14:57:59.144Z,97.80
2022-12-15T15:00:33.747Z,97.60
2022-12-15T15:03:10.012Z,97.50
2022-12-15T15:03:11.638Z,97.10
2022-12-15T15:03:18.924Z,97.40
2022-12-15T15:05:55.590Z,97.50
2022-12-15T15:08:52.794Z,97.40
2022-12-15T15:11:31.169Z,97.30
2022-12-15T15:14:06.104Z,97.30
2022-12-15T15:16:33.072Z,97.20
2022-12-15T15:19:02.513Z,97.40
2022-12-15T15:21:34.020Z,97.30
2022-12-15T15:24:22.498Z,97.30
2022-12-15T15:26:49.427Z,97.40
2022-12-15T15:29:40.954Z,97.30
2022-12-15T15:32:20.581Z,97.40
2022-12-15T15:34:48.140Z,97.40
2022-12-15T15:37:24.165Z,97.40
2022-12-15T15:39:53.032Z,97.30
2022-12-15T15:42:19.889Z,97.40
2022-12-15T15:44:46.902Z,97.40
2022-12-15T15:47:25.257Z,97.30
2022-12-15T15:49:55.104Z,97.30
2022-12-15T15:52:22.863Z,97.30
2022-12-15T15:54:50.368Z,97.40
2022-12-15T15:57:18.603Z,97.30
2022-12-15T15:59:46.691Z,97.30
2022-12-15T16:02:14.864Z,97.20
2022-12-15T16:04:43.490Z,97.30
2022-12-15T16:07:22.501Z,97.30
2022-12-15T16:09:49.765Z,97.40
2022-12-15T16:12:38.813Z,97.30
2022-12-15T16:15:25.970Z,97.30
2022-12-15T16:17:53.802Z,97.20
2022-12-15T16:20:23.349Z,97.20
2022-12-15T16:23:07.571Z,97.10
2022-12-15T16:25:50.497Z,97.10
2022-12-15T16:28:23.645Z,97.10
2022-12-15T16:30:51.329Z,97.10
2022-12-15T16:33:18.509Z,97.00
2022-12-15T16:35:48.237Z,97.00
2022-12-15T16:38:28.892Z,97.20
2022-12-15T16:40:57.117Z,97.10
2022-12-15T16:43:28.979Z,97.00
2022-12-15T16:45:57.101Z,97.10
2022-12-15T16:48:24.061Z,97.00
2022-12-15T16:50:53.591Z,97.10
2022-12-15T16:53:23.572Z,97.00
2022-12-15T16:55:55.533Z,97.10
2022-12-15T16:58:23.653Z,97.10
2022-12-15T17:00:50.958Z,97.20
2022-12-15T17:03:20.247Z,97.20
2022-12-15T17:05:51.997Z,97.20
2022-12-15T17:08:23.689Z,97.20
2022-12-15T17:10:51.012Z,97.20
2022-12-15T17:13:20.665Z,97.10
2022-12-15T17:15:47.846Z,97.10
2022-12-15T17:18:15.081Z,97.20
2022-12-15T17:20:43.117Z,97.20
2022-12-15T17:23:17.081Z,97.10
2022-12-15T17:26:18.579Z,97.00
2022-12-15T17:28:39.106Z,96.90
2022-12-15T17:31:06.179Z,96.90
2022-12-15T17:33:35.717Z,96.80
2022-12-15T17:36:12.816Z,96.90
2022-12-15T17:38:40.642Z,96.70
2022-12-15T17:41:28.765Z,96.70
2022-12-15T17:44:24.013Z,96.60
2022-12-15T17:46:45.643Z,96.70
2022-12-15T17:49:13.303Z,96.70
2022-12-15T17:51:40.590Z,96.70
2022-12-15T17:54:12.639Z,96.60
2022-12-15T17:56:39.706Z,96.70
2022-12-15T17:59:13.792Z,96.50
2022-12-15T18:01:42.442Z,96.50
2022-12-15T18:04:10.824Z,96.60
2022-12-15T18:06:39.147Z,96.50
2022-12-15T18:09:19.777Z,96.50
2022-12-15T18:11:46.932Z,96.50
2022-12-15T18:14:19.794Z,96.50
2022-12-15T18:16:46.941Z,96.40
2022-12-15T18:19:14.037Z,96.30
2022-12-15T18:21:41.193Z,96.30
2022-12-15T18:24:17.081Z,96.30
2022-12-15T18:26:44.095Z,96.30
2022-12-15T18:29:17.986Z,96.60
2022-12-15T18:31:47.028Z,96.40
2022-12-15T18:34:19.322Z,96.30
2022-12-15T18:36:46.282Z,96.30
2022-12-15T18:39:19.227Z,96.20
2022-12-15T18:41:46.655Z,96.20
2022-12-15T18:44:24.671Z,96.40
2022-12-15T18:46:51.985Z,96.40
2022-12-15T18:49:19.458Z,96.30
2022-12-15T18:51:47.686Z,96.10
2022-12-15T18:54:21.188Z,96.10
2022-12-15T18:56:48.698Z,96.00
2022-12-15T18:59:17.305Z,96.00
2022-12-15T19:01:45.845Z,95.90
2022-12-15T19:04:13.344Z,95.90
2022-12-15T19:06:41.060Z,96.00
2022-12-15T19:09:21.774Z,96.00
2022-12-15T19:12:17.852Z,96.00
2022-12-15T19:14:52.001Z,96.10
2022-12-15T19:17:39.223Z,95.90
2022-12-15T19:20:36.368Z,96.20
2022-12-15T19:23:03.755Z,95.90
2022-12-15T19:25:31.334Z,95.90
2022-12-15T19:27:59.983Z,95.80
2022-12-15T19:30:41.750Z,95.90
2022-12-15T19:33:10.138Z,95.90
2022-12-15T19:35:38.187Z,95.90
2022-12-15T19:38:06.274Z,95.70
2022-12-15T19:40:35.214Z,95.80
2022-12-15T19:43:03.295Z,95.90
2022-12-15T19:45:32.127Z,95.80
2022-12-15T19:48:00.045Z,95.80
2022-12-15T19:50:36.963Z,95.90
2022-12-15T19:53:12.789Z,95.60
2022-12-15T19:55:39.847Z,95.40
2022-12-15T19:58:27.783Z,95.40
2022-12-15T20:00:57.182Z,95.40
2022-12-15T20:03:25.287Z,95.50
2022-12-15T20:05:54.210Z,95.60
2022-12-15T20:08:27.392Z,95.50
2022-12-15T20:10:56.291Z,95.50
2022-12-15T20:13:23.555Z,95.40
2022-12-15T20:15:50.370Z,95.40
2022-12-15T20:18:17.188Z,95.30
2022-12-15T20:20:46.414Z,95.20
2022-12-15T20:23:23.748Z,95.20
2022-12-15T20:25:50.711Z,95.10
2022-12-15T20:28:24.471Z,95.10
2022-12-15T20:30:51.975Z,95.00
2022-12-15T20:33:20.689Z,95.00
2022-12-15T20:35:49.164Z,94.90
2022-12-15T20:38:28.094Z,94.90
2022-12-15T20:40:56.122Z,94.80
2022-12-15T20:43:24.969Z,94.80
2022-12-15T20:46:19.012Z,94.80
2022-12-15T20:48:46.039Z,94.70
2022-12-15T20:51:33.433Z,94.70
2022-12-15T20:54:02.235Z,94.70
2022-12-15T20:56:29.281Z,94.60
2022-12-15T20:58:58.163Z,94.50
2022-12-15T21:01:32.324Z,94.50
2022-12-15T21:04:01.492Z,94.60
2022-12-15T21:06:29.073Z,94.60
2022-12-15T21:08:56.848Z,94.60
2022-12-15T21:11:28.540Z,94.60
2022-12-15T21:13:58.930Z,94.60
2022-12-15T21:16:29.136Z,94.70
2022-12-15T21:19:20.174Z,94.60
2022-12-15T21:21:49.006Z,94.70
2022-12-15T21:24:27.520Z,94.70
2022-12-15T21:26:55.121Z,94.70
2022-12-15T21:29:24.574Z,94.80
2022-12-15T21:31:51.513Z,94.80
2022-12-15T21:34:18.319Z,94.70
2022-12-15T21:36:49.291Z,94.80
2022-12-15T21:39:23.466Z,94.80
2022-12-15T21:41:50.407Z,94.90
2022-12-15T21:44:18.395Z,95.00
2022-12-15T21:46:45.543Z,95.00
2022-12-15T21:49:20.563Z,95.10
2022-12-15T21:51:55.447Z,95.00
2022-12-15T21:54:30.480Z,94.90
2022-12-15T21:57:01.824Z,94.90
2022-12-15T21:59:31.194Z,94.90
2022-12-15T22:01:59.379Z,95.00
2022-12-15T22:04:33.803Z,94.90
2022-12-15T22:07:00.991Z,94.90
2022-12-15T22:09:27.836Z,95.00
2022-12-15T22:11:56.587Z,95.00
2022-12-15T22:14:34.341Z,95.00
2022-12-15T22:17:11.735Z,94.90
2022-12-15T22:19:38.516Z,95.30
2022-12-15T22:22:05.288Z,95.00
2022-12-15T22:24:32.285Z,94.90
2022-12-15T22:26:59.126Z,94.90
2022-12-15T22:29:27.174Z,95.00
2022-12-15T22:34:41.050Z,95.10
2022-12-15T22:37:07.944Z,95.10
2022-12-15T22:39:35.031Z,95.10
2022-12-15T22:42:04.086Z,95.10
2022-12-15T22:44:34.823Z,95.10
2022-12-15T22:47:03.525Z,95.20
2022-12-15T22:49:38.117Z,95.30
2022-12-15T22:52:17.294Z,95.50
2022-12-15T22:54:46.028Z,95.60
2022-12-15T22:57:29.383Z,95.60
2022-12-15T23:00:02.791Z,95.70
2022-12-15T23:02:33.677Z,95.70
2022-12-15T23:05:01.090Z,95.60
2022-12-15T23:07:28.316Z,95.70
2022-12-15T23:10:15.181Z,95.70
2022-12-15T23:12:42.080Z,95.70
2022-12-15T23:15:27.940Z,95.70
2022-12-15T23:17:55.067Z,95.70
2022-12-15T23:20:22.056Z,95.70
2022-12-15T23:22:48.864Z,95.90
2022-12-15T23:25:16.227Z,95.90
2022-12-15T23:27:43.240Z,95.80
2022-12-15T23:30:12.712Z,96.00
2022-12-15T23:32:39.545Z,95.90
2022-12-15T23:35:06.768Z,95.90
2022-12-15T23:37:35.140Z,95.90
2022-12-15T23:40:02.133Z,95.80
2022-12-15T23:42:28.945Z,95.80
2022-12-15T23:44:55.770Z,95.80
2022-12-15T23:47:22.659Z,95.70
2022-12-15T23:49:49.760Z,95.70
2022-12-15T23:52:20.256Z,95.70
2022-12-15T23:54:47.013Z,95.60
2022-12-15T23:57:13.812Z,95.70
2022-12-15T23:59:40.636Z,95.70
